createdAt,value
2018-12-17T00:01:26.468Z,15.77
2018-12-17T00:03:54.217Z,20.23
2018-12-17T00:06:21.899Z,18.70
2018-12-17T00:08:50.006Z,18.37
2018-12-17T00:11:17.920Z,15.50
2018-12-17T00:13:45.785Z,15.77
2018-12-17T00:16:13.392Z,16.07
2018-12-17T00:18:41.253Z,14.97
2018-12-17T00:21:09.208Z,14.47
2018-12-17T00:23:36.936Z,16.00
2018-12-17T00:26:04.654Z,15.90
2018-12-17T00:28:32.276Z,14.70
2018-12-17T00:31:00.113Z,15.90
2018-12-17T00:33:27.835Z,15.23
2018-12-17T00:35:55.461Z,15.50
2018-12-17T00:38:23.668Z,14.53
2018-12-17T00:40:51.702Z,15.50
2018-12-17T00:43:19.226Z,13.73
2018-12-17T00:45:47.213Z,15.00
2018-12-17T00:48:15.052Z,13.50
2018-12-17T00:50:42.771Z,14.10
2018-12-17T00:53:10.468Z,15.63
2018-12-17T00:55:38.211Z,13.50
2018-12-17T00:58:05.963Z,13.00
2018-12-17T01:00:33.879Z,13.57
2018-12-17T01:03:02.044Z,15.30
2018-12-17T01:05:29.771Z,14.80
2018-12-17T01:07:57.428Z,14.27
2018-12-17T01:10:25.504Z,16.00
2018-12-17T01:13:03.164Z,15.47
2018-12-17T01:15:31.051Z,15.67
2018-12-17T01:17:59.025Z,14.10
2018-12-17T01:20:27.058Z,15.63
2018-12-17T01:22:54.763Z,14.87
2018-12-17T01:25:22.415Z,13.30
2018-12-17T01:27:49.988Z,13.00
2018-12-17T01:30:18.028Z,12.50
2018-12-17T01:32:46.091Z,13.27
2018-12-17T01:35:14.350Z,14.40
2018-12-17T01:37:41.951Z,14.30
2018-12-17T01:40:09.934Z,15.10
2018-12-17T01:42:37.967Z,12.90
2018-12-17T01:45:05.904Z,12.60
2018-12-17T01:47:33.784Z,12.33
2018-12-17T01:50:01.627Z,14.73
2018-12-17T01:52:29.373Z,16.80
2018-12-17T01:54:57.106Z,14.87
2018-12-17T01:57:24.900Z,16.57
2018-12-17T01:59:52.852Z,14.73
2018-12-17T02:02:20.543Z,14.10
2018-12-17T02:04:48.524Z,14.70
2018-12-17T02:07:16.670Z,14.33
2018-12-17T02:09:44.586Z,16.20
2018-12-17T02:12:12.283Z,14.87
2018-12-17T02:14:40.463Z,14.10
2018-12-17T02:17:08.791Z,14.23
2018-12-17T02:19:36.826Z,13.77
2018-12-17T02:22:04.624Z,13.60
2018-12-17T02:24:32.394Z,14.60
2018-12-17T02:27:00.168Z,11.00
2018-12-17T02:29:27.990Z,11.80
2018-12-17T02:31:55.706Z,10.50
2018-12-17T02:34:23.290Z,9.90
2018-12-17T02:36:50.951Z,9.83
2018-12-17T02:39:18.822Z,9.27
2018-12-17T02:41:46.675Z,8.50
2018-12-17T02:44:14.534Z,8.67
2018-12-17T02:46:42.263Z,10.00
2018-12-17T02:49:10.004Z,9.17
2018-12-17T02:51:38.039Z,9.10
2018-12-17T02:54:05.736Z,8.60
2018-12-17T02:56:33.605Z,8.47
2018-12-17T02:59:01.383Z,7.70
2018-12-17T03:01:28.979Z,8.50
2018-12-17T03:03:56.601Z,8.47
2018-12-17T03:06:24.319Z,9.40
2018-12-17T03:08:52.398Z,10.13
2018-12-17T03:11:20.078Z,9.90
2018-12-17T03:13:47.595Z,9.27
2018-12-17T03:16:15.128Z,9.07
2018-12-17T03:18:42.909Z,9.57
2018-12-17T03:21:10.710Z,8.70
2018-12-17T03:23:38.519Z,9.30
2018-12-17T03:26:06.258Z,9.07
2018-12-17T03:28:33.971Z,10.53
2018-12-17T03:31:01.489Z,9.57
2018-12-17T03:33:29.006Z,9.73
2018-12-17T03:35:56.770Z,9.40
2018-12-17T03:38:24.473Z,10.30
2018-12-17T03:40:52.477Z,10.20
2018-12-17T03:43:20.169Z,10.10
2018-12-17T03:45:47.765Z,11.03
2018-12-17T03:48:15.388Z,9.97
2018-12-17T03:50:43.169Z,9.40
2018-12-17T03:53:10.823Z,9.20
2018-12-17T03:55:38.415Z,8.07
2018-12-17T03:58:06.274Z,8.90
2018-12-17T04:00:34.015Z,9.40
2018-12-17T04:03:07.952Z,9.23
2018-12-17T04:05:35.670Z,9.93
2018-12-17T04:08:03.238Z,8.60
2018-12-17T04:10:31.060Z,9.50
2018-12-17T04:12:58.797Z,10.50
2018-12-17T04:15:26.990Z,9.33
2018-12-17T04:17:54.624Z,9.80
2018-12-17T04:20:22.750Z,10.30
2018-12-17T04:22:50.376Z,10.20
2018-12-17T04:25:18.261Z,9.40
2018-12-17T04:27:46.104Z,9.93
2018-12-17T04:30:13.686Z,9.57
2018-12-17T04:32:41.374Z,9.70
2018-12-17T04:35:10.550Z,9.30
2018-12-17T04:37:38.228Z,8.53
2018-12-17T04:40:06.707Z,9.70
2018-12-17T04:42:34.375Z,8.27
2018-12-17T04:45:02.172Z,9.80
2018-12-17T04:47:29.623Z,10.23
2018-12-17T04:49:57.297Z,10.87
2018-12-17T04:52:24.845Z,9.53
2018-12-17T04:54:52.633Z,9.23
2018-12-17T04:57:20.609Z,11.50
2018-12-17T04:59:48.472Z,12.17
2018-12-17T05:02:16.089Z,12.90
2018-12-17T05:04:43.734Z,12.40
2018-12-17T05:07:11.403Z,13.17
2018-12-17T05:09:39.075Z,12.63
2018-12-17T05:12:07.154Z,8.87
2018-12-17T05:14:34.700Z,8.87
2018-12-17T05:17:02.288Z,11.07
2018-12-17T05:19:30.453Z,10.50
2018-12-17T05:21:58.156Z,11.00
2018-12-17T05:24:26.067Z,10.30
2018-12-17T05:26:53.679Z,9.33
2018-12-17T05:29:21.751Z,8.17
2018-12-17T05:31:49.615Z,9.93
2018-12-17T05:34:17.503Z,9.10
2018-12-17T05:36:45.329Z,8.40
2018-12-17T05:39:12.943Z,8.97
2018-12-17T05:41:40.669Z,8.70
2018-12-17T05:44:08.785Z,9.50
2018-12-17T05:46:36.794Z,9.37
2018-12-17T05:49:04.593Z,8.50
2018-12-17T05:51:32.319Z,9.80
2018-12-17T05:54:00.247Z,11.30
2018-12-17T05:56:27.777Z,9.20
2018-12-17T05:58:55.312Z,10.50
2018-12-17T06:01:22.997Z,10.07
2018-12-17T06:03:50.641Z,10.17
2018-12-17T06:06:18.451Z,10.70
2018-12-17T06:08:46.439Z,9.93
2018-12-17T06:11:14.155Z,10.40
2018-12-17T06:13:41.823Z,9.37
2018-12-17T06:16:09.827Z,10.10
2018-12-17T06:18:38.569Z,9.50
2018-12-17T06:21:06.112Z,9.03
2018-12-17T06:23:33.846Z,9.70
2018-12-17T06:26:01.808Z,10.77
2018-12-17T06:28:29.635Z,10.47
2018-12-17T06:30:57.263Z,10.70
2018-12-17T06:33:24.997Z,10.87
2018-12-17T06:35:52.834Z,10.97
2018-12-17T06:38:20.477Z,10.27
2018-12-17T06:40:48.131Z,9.20
2018-12-17T06:43:15.956Z,9.80
2018-12-17T06:45:43.910Z,9.10
2018-12-17T06:48:17.066Z,9.67
2018-12-17T06:50:41.461Z,10.47
2018-12-17T06:53:09.285Z,9.53
2018-12-17T06:55:36.975Z,10.17
2018-12-17T06:58:04.984Z,13.70
2018-12-17T07:00:32.631Z,10.93
2018-12-17T07:03:00.506Z,10.57
2018-12-17T07:05:28.147Z,10.57
2018-12-17T07:07:55.786Z,9.80
2018-12-17T07:10:24.326Z,9.63
2018-12-17T07:12:52.633Z,9.50
2018-12-17T07:15:21.093Z,10.97
2018-12-17T07:17:48.842Z,10.43
2018-12-17T07:20:17.206Z,10.50
2018-12-17T07:22:45.272Z,10.17
2018-12-17T07:25:13.259Z,10.30
2018-12-17T07:27:41.110Z,10.20
2018-12-17T07:30:10.537Z,10.80
2018-12-17T07:32:38.277Z,10.60
2018-12-17T07:35:07.694Z,9.43
2018-12-17T07:37:47.629Z,10.00
2018-12-17T07:44:45.346Z,10.00
2018-12-17T07:47:14.073Z,10.10
2018-12-17T07:49:42.656Z,10.90
2018-12-17T07:52:12.626Z,8.67
2018-12-17T07:54:40.719Z,9.93
2018-12-17T07:57:09.073Z,9.17
2018-12-17T07:59:37.281Z,9.60
2018-12-17T08:02:05.194Z,10.23
2018-12-17T08:04:33.463Z,9.80
2018-12-17T08:07:01.001Z,11.13
2018-12-17T08:09:28.635Z,11.47
2018-12-17T08:11:56.685Z,16.57
2018-12-17T08:14:24.326Z,17.00
2018-12-17T08:16:53.143Z,14.47
2018-12-17T08:19:22.422Z,14.80
2018-12-17T08:21:50.298Z,16.00
2018-12-17T08:24:17.977Z,16.90
2018-12-17T08:26:45.810Z,19.10
2018-12-17T08:29:13.508Z,19.23
2018-12-17T08:31:41.410Z,19.53
2018-12-17T08:34:09.209Z,17.37
2018-12-17T08:36:36.709Z,26.87
2018-12-17T08:39:06.802Z,25.13
2018-12-17T08:41:34.662Z,21.23
2018-12-17T08:44:02.461Z,21.10
2018-12-17T08:46:30.240Z,22.67
2018-12-17T08:48:57.834Z,20.27
2018-12-17T08:51:25.566Z,20.70
2018-12-17T08:53:53.295Z,20.03
2018-12-17T08:56:20.878Z,21.97
2018-12-17T08:58:48.653Z,22.97
2018-12-17T09:01:16.271Z,20.60
2018-12-17T09:03:43.918Z,21.17
2018-12-17T09:06:11.894Z,17.20
2018-12-17T09:08:39.775Z,13.20
2018-12-17T09:11:07.800Z,8.97
2018-12-17T09:13:35.836Z,9.10
2018-12-17T09:16:03.771Z,9.60
2018-12-17T09:18:31.508Z,10.00
2018-12-17T09:20:59.595Z,9.40
2018-12-17T09:23:27.461Z,8.93
2018-12-17T09:25:55.417Z,8.83
2018-12-17T09:28:23.038Z,8.93
2018-12-17T09:30:51.889Z,9.77
2018-12-17T09:33:19.491Z,10.00
2018-12-17T09:35:47.135Z,8.90
2018-12-17T09:38:15.135Z,9.00
2018-12-17T09:40:43.153Z,8.20
2018-12-17T09:43:11.126Z,8.60
2018-12-17T09:45:39.249Z,8.30
2018-12-17T09:48:07.649Z,8.47
2018-12-17T09:50:35.963Z,9.80
2018-12-17T09:53:04.057Z,9.87
2018-12-17T09:55:31.934Z,10.37
2018-12-17T09:58:00.677Z,10.47
2018-12-17T10:00:28.517Z,9.30
2018-12-17T10:02:56.185Z,8.60
2018-12-17T10:05:23.887Z,9.47
2018-12-17T10:07:51.517Z,10.00
2018-12-17T10:10:19.440Z,8.93
2018-12-17T10:12:47.002Z,10.63
2018-12-17T10:15:14.669Z,10.23
2018-12-17T10:17:42.401Z,10.07
2018-12-17T10:20:10.010Z,10.20
2018-12-17T10:22:38.269Z,9.53
2018-12-17T10:25:06.121Z,10.63
2018-12-17T10:27:33.908Z,9.93
2018-12-17T10:30:01.714Z,8.53
2018-12-17T10:32:29.505Z,8.73
2018-12-17T10:34:57.412Z,10.07
2018-12-17T10:37:25.218Z,9.37
2018-12-17T10:39:53.078Z,9.80
2018-12-17T10:42:22.794Z,9.83
2018-12-17T10:44:50.620Z,9.43
2018-12-17T10:47:18.311Z,10.00
2018-12-17T10:49:46.106Z,8.57
2018-12-17T10:52:13.805Z,9.40
2018-12-17T10:54:41.730Z,9.00
2018-12-17T10:57:10.215Z,10.13
2018-12-17T10:59:38.081Z,8.40
2018-12-17T11:02:20.499Z,10.80
2018-12-17T11:07:50.179Z,9.90
2018-12-17T11:10:19.111Z,9.00
2018-12-17T11:12:47.705Z,9.17
2018-12-17T11:15:16.346Z,8.60
2018-12-17T11:30:52.993Z,8.20
2018-12-17T11:33:21.839Z,7.80
2018-12-17T11:35:50.603Z,6.75
2018-12-17T11:38:19.306Z,7.47
2018-12-17T11:40:47.964Z,6.87
2018-12-17T11:43:16.703Z,8.40
2018-12-17T11:45:45.446Z,10.97
2018-12-17T11:48:14.034Z,7.50
2018-12-17T11:50:42.613Z,8.20
2018-12-17T11:53:11.247Z,8.50
2018-12-17T11:55:40.487Z,36.57
2018-12-17T11:58:11.948Z,13.93
2018-12-17T12:00:43.718Z,11.77
2018-12-17T12:03:12.388Z,10.80
2018-12-17T12:05:41.156Z,12.10
2018-12-17T12:08:09.959Z,46.80
2018-12-17T12:10:38.965Z,11.40
2018-12-17T12:13:08.298Z,11.23
2018-12-17T12:15:37.545Z,10.17
2018-12-17T12:18:06.291Z,9.40
2018-12-17T12:20:34.935Z,11.20
2018-12-17T12:23:03.633Z,9.90
2018-12-17T12:25:32.507Z,9.53
2018-12-17T12:28:01.211Z,9.47
2018-12-17T12:30:30.428Z,9.20
2018-12-17T12:32:59.235Z,10.07
2018-12-17T12:35:27.965Z,10.25
2018-12-17T12:37:56.962Z,9.60
2018-12-17T12:40:26.031Z,9.47
2018-12-17T12:42:54.913Z,9.10
2018-12-17T12:45:24.125Z,8.20
2018-12-17T12:47:53.553Z,8.30
2018-12-17T12:50:22.569Z,8.73
2018-12-17T12:52:51.907Z,10.40
2018-12-17T12:55:20.601Z,10.77
2018-12-17T12:57:49.420Z,9.18
2018-12-17T13:00:18.264Z,9.00
2018-12-17T13:02:47.064Z,9.80
2018-12-17T13:05:16.459Z,9.37
2018-12-17T13:07:45.063Z,8.47
2018-12-17T13:13:08.390Z,8.87
2018-12-17T13:15:37.348Z,7.70
2018-12-17T13:18:06.236Z,7.00
2018-12-17T13:20:35.266Z,6.87
2018-12-17T13:23:05.374Z,6.47
2018-12-17T13:25:39.006Z,6.53
2018-12-17T13:28:07.865Z,7.40
2018-12-17T13:30:37.085Z,7.60
2018-12-17T13:33:05.802Z,7.60
2018-12-17T13:35:35.118Z,7.50
2018-12-17T13:38:03.862Z,8.13
2018-12-17T13:40:32.534Z,8.73
2018-12-17T13:43:01.263Z,8.33
2018-12-17T13:45:29.893Z,7.17
2018-12-17T13:47:59.030Z,6.63
2018-12-17T13:50:36.077Z,5.47
2018-12-17T13:53:10.559Z,5.53
2018-12-17T13:55:39.746Z,4.40
2018-12-17T13:58:08.803Z,3.33
2018-12-17T14:00:37.791Z,3.92
2018-12-17T14:03:06.739Z,2.60
2018-12-17T14:05:35.938Z,2.00
2018-12-17T14:08:04.662Z,1.70
2018-12-17T14:10:38.469Z,2.20
2018-12-17T14:13:07.699Z,1.53
2018-12-17T14:15:41.807Z,1.13
2018-12-17T14:18:15.814Z,1.60
2018-12-17T14:20:50.052Z,2.17
2018-12-17T14:23:18.840Z,1.63
2018-12-17T14:25:54.438Z,1.30
2018-12-17T14:28:23.071Z,1.50
2018-12-17T14:30:51.792Z,1.40
2018-12-17T14:33:20.732Z,1.50
2018-12-17T14:35:54.875Z,2.83
2018-12-17T14:38:24.098Z,4.37
2018-12-17T14:40:52.685Z,2.97
2018-12-17T14:43:21.732Z,3.72
2018-12-17T14:45:50.478Z,4.67
2018-12-17T14:48:19.114Z,10.67
2018-12-17T14:50:48.151Z,8.70
2018-12-17T14:53:16.848Z,6.90
2018-12-17T14:55:45.649Z,9.10
2018-12-17T14:58:14.354Z,8.03
2018-12-17T15:00:43.066Z,6.70
2018-12-17T15:03:11.808Z,5.93
2018-12-17T15:05:41.527Z,5.27
2018-12-17T15:08:11.511Z,4.70
2018-12-17T15:10:40.405Z,3.80
2018-12-17T15:13:09.628Z,3.53
2018-12-17T15:15:38.881Z,3.77
2018-12-17T15:18:07.733Z,3.10
2018-12-17T15:20:36.705Z,4.17
2018-12-17T15:23:05.763Z,5.93
2018-12-17T15:25:34.699Z,4.90
2018-12-17T15:28:03.723Z,4.83
2018-12-17T15:30:32.543Z,5.00
2018-12-17T15:33:01.156Z,5.00
2018-12-17T15:35:29.841Z,5.20
2018-12-17T15:38:02.692Z,4.90
2018-12-17T15:40:31.398Z,5.50
2018-12-17T15:43:00.008Z,6.10
2018-12-17T15:45:28.761Z,5.70
2018-12-17T15:47:57.731Z,4.60
2018-12-17T15:50:26.459Z,4.90
2018-12-17T15:52:55.174Z,4.60
2018-12-17T15:55:23.943Z,4.00
2018-12-17T15:57:52.723Z,4.20
2018-12-17T16:00:21.540Z,5.50
2018-12-17T16:02:50.745Z,5.60
2018-12-17T16:05:19.999Z,4.97
2018-12-17T16:07:48.706Z,5.87
2018-12-17T16:10:17.389Z,5.13
2018-12-17T16:12:46.194Z,5.73
2018-12-17T16:15:15.141Z,5.80
2018-12-17T16:17:44.084Z,7.07
2018-12-17T16:20:12.744Z,5.00
2018-12-17T16:22:41.271Z,6.03
2018-12-17T16:25:10.110Z,6.37
2018-12-17T16:27:39.180Z,5.43
2018-12-17T16:30:10.192Z,7.10
2018-12-17T16:32:39.027Z,7.13
2018-12-17T16:35:08.652Z,6.53
2018-12-17T16:37:37.441Z,5.80
2018-12-17T16:40:07.724Z,5.73
2018-12-17T16:42:36.971Z,10.25
2018-12-17T16:45:08.235Z,8.50
2018-12-17T16:47:37.017Z,7.30
2018-12-17T16:50:08.057Z,5.50
2018-12-17T16:52:36.997Z,5.40
2018-12-17T16:55:06.245Z,5.53
2018-12-17T16:57:35.074Z,5.60
2018-12-17T17:00:04.038Z,6.73
2018-12-17T17:02:32.799Z,5.50
2018-12-17T17:05:01.381Z,5.33
2018-12-17T17:07:30.047Z,5.60
2018-12-17T17:10:03.242Z,5.03
2018-12-17T17:12:32.052Z,5.50
2018-12-17T17:15:00.733Z,6.33
2018-12-17T17:17:29.734Z,7.60
2018-12-17T17:19:58.866Z,6.80
2018-12-17T17:22:28.108Z,6.40
2018-12-17T17:24:56.781Z,6.05
2018-12-17T17:27:25.963Z,7.87
2018-12-17T17:29:54.972Z,9.03
2018-12-17T17:32:23.663Z,6.70
2018-12-17T17:34:52.386Z,7.77
2018-12-17T17:37:21.537Z,6.80
2018-12-17T17:39:50.705Z,4.87
2018-12-17T17:42:19.354Z,6.03
2018-12-17T17:44:48.002Z,7.00
2018-12-17T17:47:16.519Z,5.83
2018-12-17T17:49:45.202Z,5.60
2018-12-17T17:52:13.782Z,5.70
2018-12-17T17:54:42.450Z,6.20
2018-12-17T17:57:11.130Z,7.87
2018-12-17T17:59:40.266Z,7.37
2018-12-17T18:02:09.136Z,6.30
2018-12-17T18:04:37.550Z,6.20
2018-12-17T18:07:06.321Z,6.30
2018-12-17T18:12:33.454Z,5.97
2018-12-17T18:15:06.206Z,7.00
2018-12-17T18:17:42.424Z,7.83
2018-12-17T18:24:01.932Z,9.60
2018-12-17T18:26:30.754Z,9.40
2018-12-17T18:28:59.216Z,10.27
2018-12-17T18:31:27.865Z,8.90
2018-12-17T18:33:57.299Z,8.30
2018-12-17T18:36:26.443Z,10.50
2018-12-17T18:38:55.536Z,8.50
2018-12-17T18:41:24.465Z,9.20
2018-12-17T18:43:53.975Z,9.40
2018-12-17T18:46:22.866Z,9.48
2018-12-17T18:48:51.451Z,9.20
2018-12-17T18:51:20.055Z,9.10
2018-12-17T18:53:48.884Z,11.53
2018-12-17T18:56:17.713Z,11.10
2018-12-17T18:58:46.330Z,9.37
2018-12-17T19:01:45.698Z,8.63
2018-12-17T19:04:14.563Z,9.53
2018-12-17T19:06:43.511Z,10.87
2018-12-17T19:09:12.606Z,12.70
2018-12-17T19:11:41.817Z,13.30
2018-12-17T19:14:13.480Z,10.23
2018-12-17T19:16:42.807Z,9.13
2018-12-17T19:19:11.682Z,8.47
2018-12-17T19:21:41.438Z,7.87
2018-12-17T19:24:10.153Z,6.63
2018-12-17T19:26:39.317Z,7.25
2018-12-17T19:29:08.464Z,7.43
2018-12-17T19:31:37.750Z,9.27
2018-12-17T19:34:07.005Z,8.20
2018-12-17T19:36:37.217Z,8.60
2018-12-17T19:39:08.220Z,7.07
2018-12-17T19:41:37.785Z,7.10
2018-12-17T19:44:07.491Z,6.90
2018-12-17T19:46:37.563Z,8.57
2018-12-17T19:49:07.270Z,8.30
2018-12-17T19:51:36.545Z,7.90
2018-12-17T19:54:05.427Z,7.80
2018-12-17T19:56:34.223Z,9.00
2018-12-17T19:59:03.262Z,9.30
2018-12-17T20:01:31.967Z,10.07
2018-12-17T20:04:00.990Z,10.00
2018-12-17T20:06:30.422Z,8.63
2018-12-17T20:08:59.476Z,9.78
2018-12-17T20:11:30.729Z,9.60
2018-12-17T20:14:02.115Z,10.80
2018-12-17T20:16:31.280Z,10.67
2018-12-17T20:18:59.998Z,9.20
2018-12-17T20:21:29.023Z,10.50
2018-12-17T20:23:57.886Z,11.30
2018-12-17T20:26:26.816Z,11.43
2018-12-17T20:28:55.556Z,12.47
2018-12-17T20:31:24.608Z,11.93
2018-12-17T20:33:54.106Z,12.40
2018-12-17T20:36:23.824Z,20.03
2018-12-17T20:38:53.032Z,12.40
2018-12-17T20:41:22.453Z,12.73
2018-12-17T20:43:52.773Z,16.27
2018-12-17T20:46:22.468Z,13.77
2018-12-17T20:48:51.814Z,10.37
2018-12-17T20:51:21.927Z,9.70
2018-12-17T20:53:50.663Z,11.23
2018-12-17T20:56:19.619Z,10.13
2018-12-17T20:58:48.489Z,10.17
2018-12-17T21:01:17.536Z,9.63
2018-12-17T21:03:46.460Z,9.57
2018-12-17T21:06:15.441Z,9.43
2018-12-17T21:08:44.380Z,9.60
2018-12-17T21:11:13.044Z,9.63
2018-12-17T21:13:42.016Z,10.05
2018-12-17T21:16:10.825Z,10.20
2018-12-17T21:18:39.681Z,10.93
2018-12-17T21:21:08.889Z,10.73
2018-12-17T21:23:37.942Z,10.20
2018-12-17T21:26:06.603Z,9.17
2018-12-17T21:28:35.373Z,9.87
2018-12-17T21:31:04.596Z,12.37
2018-12-17T21:33:33.362Z,13.00
2018-12-17T21:36:02.609Z,11.77
2018-12-17T21:38:31.628Z,12.40
2018-12-17T21:41:00.547Z,11.20
2018-12-17T21:43:35.883Z,9.07
2018-12-17T21:46:00.449Z,11.83
2018-12-17T21:48:29.159Z,10.67
2018-12-17T21:50:58.027Z,14.40
2018-12-17T21:53:27.095Z,12.70
2018-12-17T21:55:56.133Z,10.43
2018-12-17T21:58:25.195Z,10.90
2018-12-17T22:00:54.225Z,9.70
2018-12-17T22:03:22.888Z,10.00
2018-12-17T22:05:51.795Z,9.10
2018-12-17T22:08:20.589Z,11.63
2018-12-17T22:10:49.505Z,9.30
2018-12-17T22:13:18.335Z,9.00
2018-12-17T22:15:47.154Z,11.13
2018-12-17T22:18:15.935Z,12.60
2018-12-17T22:20:44.838Z,11.10
2018-12-17T22:23:13.627Z,10.87
2018-12-17T22:25:42.449Z,10.43
2018-12-17T22:28:11.309Z,13.45
2018-12-17T22:30:40.029Z,12.13
2018-12-17T22:33:08.882Z,10.47
2018-12-17T22:35:37.741Z,9.98
2018-12-17T22:38:06.442Z,8.87
2018-12-17T22:40:35.364Z,9.67
2018-12-17T22:43:04.468Z,9.00
2018-12-17T22:45:33.535Z,8.47
2018-12-17T22:48:02.328Z,9.80
2018-12-17T22:50:31.119Z,9.97
2018-12-17T22:53:00.085Z,8.20
2018-12-17T22:55:28.888Z,9.33
2018-12-17T22:57:57.604Z,8.37
2018-12-17T23:00:26.769Z,7.87
2018-12-17T23:02:55.473Z,8.53
2018-12-17T23:05:24.304Z,9.00
2018-12-17T23:07:53.237Z,8.40
2018-12-17T23:10:37.197Z,7.60
2018-12-17T23:13:17.241Z,8.70
2018-12-17T23:15:57.081Z,8.90
2018-12-17T23:18:24.986Z,7.87
2018-12-17T23:20:54.760Z,7.30
2018-12-17T23:23:23.470Z,8.17
2018-12-17T23:25:52.340Z,7.93
2018-12-17T23:28:21.078Z,8.93
2018-12-17T23:30:50.711Z,7.57
2018-12-17T23:33:19.398Z,8.53
2018-12-17T23:35:48.271Z,7.70
2018-12-17T23:38:16.880Z,8.00
2018-12-17T23:40:45.498Z,8.90
2018-12-17T23:43:14.477Z,8.90
2018-12-17T23:45:43.466Z,8.40
2018-12-17T23:48:11.999Z,8.47
2018-12-17T23:50:40.775Z,10.23
2018-12-17T23:53:09.837Z,7.80
2018-12-17T23:55:38.414Z,9.63
2018-12-17T23:58:07.189Z,7.70
